sensor_id;sensor_type;location;lat;lon;timestamp;P1;durP1;ratioP1;P2;durP2;ratioP2
14748;SDS011;7466;53.574;9.976;2023-05-29T00:01:17;18.20;;;3.43;;
14748;SDS011;7466;53.574;9.976;2023-05-29T00:03:46;9.63;;;3.23;;
14748;SDS011;7466;53.574;9.976;2023-05-29T00:06:13;14.67;;;3.33;;
14748;SDS011;7466;53.574;9.976;2023-05-29T00:08:40;14.03;;;3.43;;
14748;SDS011;7466;53.574;9.976;2023-05-29T00:11:06;8.33;;;3.00;;
14748;SDS011;7466;53.574;9.976;2023-05-29T00:13:33;15.03;;;4.07;;
14748;SDS011;7466;53.574;9.976;2023-05-29T00:16:02;12.93;;;3.27;;
14748;SDS011;7466;53.574;9.976;2023-05-29T00:18:29;8.73;;;3.50;;
14748;SDS011;7466;53.574;9.976;2023-05-29T00:20:56;13.13;;;2.97;;
14748;SDS011;7466;53.574;9.976;2023-05-29T00:23:23;15.80;;;4.10;;
14748;SDS011;7466;53.574;9.976;2023-05-29T00:25:50;10.97;;;2.90;;
14748;SDS011;7466;53.574;9.976;2023-05-29T00:28:17;12.00;;;3.10;;
14748;SDS011;7466;53.574;9.976;2023-05-29T00:30:44;9.87;;;3.43;;
14748;SDS011;7466;53.574;9.976;2023-05-29T00:33:12;10.63;;;3.13;;
14748;SDS011;7466;53.574;9.976;2023-05-29T00:35:38;11.37;;;3.27;;
14748;SDS011;7466;53.574;9.976;2023-05-29T00:38:05;13.13;;;3.33;;
14748;SDS011;7466;53.574;9.976;2023-05-29T00:40:32;10.87;;;3.30;;
14748;SDS011;7466;53.574;9.976;2023-05-29T00:42:59;11.57;;;2.80;;
14748;SDS011;7466;53.574;9.976;2023-05-29T00:45:26;9.23;;;2.93;;
14748;SDS011;7466;53.574;9.976;2023-05-29T00:47:53;9.07;;;3.13;;
14748;SDS011;7466;53.574;9.976;2023-05-29T00:50:21;14.33;;;3.57;;
14748;SDS011;7466;53.574;9.976;2023-05-29T00:52:50;14.67;;;3.47;;
14748;SDS011;7466;53.574;9.976;2023-05-29T00:55:16;14.87;;;3.40;;
14748;SDS011;7466;53.574;9.976;2023-05-29T00:57:43;10.10;;;3.40;;
14748;SDS011;7466;53.574;9.976;2023-05-29T01:00:12;13.00;;;3.00;;
14748;SDS011;7466;53.574;9.976;2023-05-29T01:02:39;15.97;;;3.47;;
14748;SDS011;7466;53.574;9.976;2023-05-29T01:05:09;10.57;;;3.07;;
14748;SDS011;7466;53.574;9.976;2023-05-29T01:07:38;19.80;;;3.77;;
14748;SDS011;7466;53.574;9.976;2023-05-29T01:10:05;12.17;;;3.40;;
14748;SDS011;7466;53.574;9.976;2023-05-29T01:12:36;13.70;;;3.33;;
14748;SDS011;7466;53.574;9.976;2023-05-29T01:15:09;11.93;;;3.30;;
14748;SDS011;7466;53.574;9.976;2023-05-29T01:17:47;13.27;;;3.20;;
14748;SDS011;7466;53.574;9.976;2023-05-29T01:20:29;12.03;;;3.57;;
14748;SDS011;7466;53.574;9.976;2023-05-29T01:23:07;11.63;;;3.20;;
14748;SDS011;7466;53.574;9.976;2023-05-29T01:25:56;14.73;;;3.40;;
14748;SDS011;7466;53.574;9.976;2023-05-29T01:34:43;14.23;;;2.97;;
14748;SDS011;7466;53.574;9.976;2023-05-29T01:37:10;11.80;;;3.40;;
14748;SDS011;7466;53.574;9.976;2023-05-29T01:39:38;17.53;;;3.70;;
14748;SDS011;7466;53.574;9.976;2023-05-29T01:42:05;12.10;;;3.30;;
14748;SDS011;7466;53.574;9.976;2023-05-29T01:44:32;11.40;;;2.93;;
14748;SDS011;7466;53.574;9.976;2023-05-29T01:47:00;17.40;;;3.40;;
14748;SDS011;7466;53.574;9.976;2023-05-29T01:49:27;14.50;;;3.30;;
14748;SDS011;7466;53.574;9.976;2023-05-29T01:52:03;12.97;;;3.37;;
14748;SDS011;7466;53.574;9.976;2023-05-29T01:54:30;12.07;;;3.53;;
14748;SDS011;7466;53.574;9.976;2023-05-29T01:56:57;13.57;;;3.37;;
14748;SDS011;7466;53.574;9.976;2023-05-29T01:59:25;14.73;;;3.63;;
14748;SDS011;7466;53.574;9.976;2023-05-29T02:01:53;17.07;;;3.47;;
14748;SDS011;7466;53.574;9.976;2023-05-29T02:04:20;14.00;;;3.47;;
14748;SDS011;7466;53.574;9.976;2023-05-29T02:06:47;16.87;;;3.50;;
14748;SDS011;7466;53.574;9.976;2023-05-29T02:09:15;15.57;;;3.40;;
14748;SDS011;7466;53.574;9.976;2023-05-29T02:11:42;12.37;;;3.87;;
14748;SDS011;7466;53.574;9.976;2023-05-29T02:14:10;12.27;;;3.73;;
14748;SDS011;7466;53.574;9.976;2023-05-29T02:16:37;21.47;;;4.13;;
14748;SDS011;7466;53.574;9.976;2023-05-29T02:19:06;14.00;;;3.30;;
14748;SDS011;7466;53.574;9.976;2023-05-29T02:21:32;10.57;;;3.00;;
14748;SDS011;7466;53.574;9.976;2023-05-29T02:24:00;13.43;;;3.60;;
14748;SDS011;7466;53.574;9.976;2023-05-29T02:26:28;13.40;;;3.10;;
14748;SDS011;7466;53.574;9.976;2023-05-29T02:28:56;9.47;;;2.93;;
14748;SDS011;7466;53.574;9.976;2023-05-29T02:31:23;11.83;;;3.20;;
14748;SDS011;7466;53.574;9.976;2023-05-29T02:33:50;14.03;;;3.73;;
14748;SDS011;7466;53.574;9.976;2023-05-29T02:36:16;13.37;;;3.13;;
14748;SDS011;7466;53.574;9.976;2023-05-29T02:38:43;19.83;;;4.40;;
14748;SDS011;7466;53.574;9.976;2023-05-29T02:41:10;20.23;;;3.73;;
14748;SDS011;7466;53.574;9.976;2023-05-29T02:43:38;11.50;;;3.40;;
14748;SDS011;7466;53.574;9.976;2023-05-29T02:46:05;11.20;;;3.30;;
14748;SDS011;7466;53.574;9.976;2023-05-29T02:48:32;10.40;;;3.07;;
14748;SDS011;7466;53.574;9.976;2023-05-29T02:50:58;11.23;;;3.00;;
14748;SDS011;7466;53.574;9.976;2023-05-29T02:53:25;14.73;;;3.53;;
14748;SDS011;7466;53.574;9.976;2023-05-29T02:55:52;17.23;;;4.07;;
14748;SDS011;7466;53.574;9.976;2023-05-29T02:58:19;15.23;;;3.80;;
14748;SDS011;7466;53.574;9.976;2023-05-29T03:00:48;15.00;;;3.60;;
14748;SDS011;7466;53.574;9.976;2023-05-29T03:03:15;18.87;;;3.80;;
14748;SDS011;7466;53.574;9.976;2023-05-29T03:05:42;17.47;;;3.50;;
14748;SDS011;7466;53.574;9.976;2023-05-29T03:08:08;14.73;;;3.73;;
14748;SDS011;7466;53.574;9.976;2023-05-29T03:10:35;16.73;;;3.93;;
14748;SDS011;7466;53.574;9.976;2023-05-29T03:13:02;18.50;;;3.63;;
14748;SDS011;7466;53.574;9.976;2023-05-29T03:15:30;14.27;;;3.33;;
14748;SDS011;7466;53.574;9.976;2023-05-29T03:17:58;18.03;;;3.70;;
14748;SDS011;7466;53.574;9.976;2023-05-29T03:20:25;14.67;;;3.27;;
14748;SDS011;7466;53.574;9.976;2023-05-29T03:22:53;18.07;;;3.87;;
14748;SDS011;7466;53.574;9.976;2023-05-29T03:25:20;13.93;;;3.53;;
14748;SDS011;7466;53.574;9.976;2023-05-29T03:27:47;20.00;;;3.57;;
14748;SDS011;7466;53.574;9.976;2023-05-29T03:30:14;20.77;;;3.50;;
14748;SDS011;7466;53.574;9.976;2023-05-29T03:32:41;16.40;;;3.70;;
14748;SDS011;7466;53.574;9.976;2023-05-29T03:35:09;16.27;;;3.67;;
14748;SDS011;7466;53.574;9.976;2023-05-29T03:37:36;10.73;;;3.13;;
14748;SDS011;7466;53.574;9.976;2023-05-29T03:40:03;12.87;;;3.37;;
14748;SDS011;7466;53.574;9.976;2023-05-29T03:42:31;11.70;;;3.63;;
14748;SDS011;7466;53.574;9.976;2023-05-29T03:44:59;14.73;;;3.77;;
14748;SDS011;7466;53.574;9.976;2023-05-29T03:47:26;14.53;;;3.40;;
14748;SDS011;7466;53.574;9.976;2023-05-29T03:49:53;19.40;;;3.83;;
14748;SDS011;7466;53.574;9.976;2023-05-29T03:52:21;8.60;;;3.07;;
14748;SDS011;7466;53.574;9.976;2023-05-29T03:54:48;13.20;;;3.60;;
14748;SDS011;7466;53.574;9.976;2023-05-29T03:57:16;21.17;;;4.47;;
14748;SDS011;7466;53.574;9.976;2023-05-29T03:59:43;16.07;;;3.90;;
14748;SDS011;7466;53.574;9.976;2023-05-29T04:02:10;17.53;;;3.50;;
14748;SDS011;7466;53.574;9.976;2023-05-29T04:04:37;16.37;;;3.60;;
14748;SDS011;7466;53.574;9.976;2023-05-29T04:07:05;13.77;;;4.00;;
14748;SDS011;7466;53.574;9.976;2023-05-29T04:09:40;16.97;;;3.87;;
14748;SDS011;7466;53.574;9.976;2023-05-29T04:12:07;14.73;;;3.97;;
14748;SDS011;7466;53.574;9.976;2023-05-29T04:14:34;12.80;;;3.43;;
14748;SDS011;7466;53.574;9.976;2023-05-29T04:17:01;16.90;;;4.00;;
14748;SDS011;7466;53.574;9.976;2023-05-29T04:19:27;16.67;;;4.43;;
14748;SDS011;7466;53.574;9.976;2023-05-29T04:21:54;19.33;;;3.73;;
14748;SDS011;7466;53.574;9.976;2023-05-29T04:24:21;18.10;;;4.73;;
14748;SDS011;7466;53.574;9.976;2023-05-29T04:26:50;14.57;;;3.90;;
14748;SDS011;7466;53.574;9.976;2023-05-29T04:29:17;16.37;;;4.10;;
14748;SDS011;7466;53.574;9.976;2023-05-29T04:31:50;14.83;;;3.80;;
14748;SDS011;7466;53.574;9.976;2023-05-29T04:34:17;20.07;;;4.30;;
14748;SDS011;7466;53.574;9.976;2023-05-29T04:36:45;17.57;;;3.70;;
14748;SDS011;7466;53.574;9.976;2023-05-29T04:39:12;14.83;;;4.00;;
14748;SDS011;7466;53.574;9.976;2023-05-29T04:41:39;14.83;;;3.70;;
14748;SDS011;7466;53.574;9.976;2023-05-29T04:44:07;17.33;;;3.97;;
14748;SDS011;7466;53.574;9.976;2023-05-29T04:46:36;16.60;;;3.70;;
14748;SDS011;7466;53.574;9.976;2023-05-29T04:49:03;16.50;;;3.90;;
14748;SDS011;7466;53.574;9.976;2023-05-29T04:51:30;21.97;;;4.00;;
14748;SDS011;7466;53.574;9.976;2023-05-29T04:53:57;23.93;;;4.37;;
14748;SDS011;7466;53.574;9.976;2023-05-29T04:56:24;13.97;;;3.70;;
14748;SDS011;7466;53.574;9.976;2023-05-29T04:58:51;24.53;;;4.80;;
14748;SDS011;7466;53.574;9.976;2023-05-29T05:01:20;20.87;;;4.07;;
14748;SDS011;7466;53.574;9.976;2023-05-29T05:03:48;25.70;;;4.73;;
14748;SDS011;7466;53.574;9.976;2023-05-29T05:06:15;13.70;;;3.93;;
14748;SDS011;7466;53.574;9.976;2023-05-29T05:08:42;21.47;;;4.10;;
14748;SDS011;7466;53.574;9.976;2023-05-29T05:11:08;12.13;;;3.90;;
14748;SDS011;7466;53.574;9.976;2023-05-29T05:13:35;19.70;;;4.17;;
14748;SDS011;7466;53.574;9.976;2023-05-29T05:16:02;13.67;;;4.10;;
14748;SDS011;7466;53.574;9.976;2023-05-29T05:18:30;18.60;;;3.50;;
14748;SDS011;7466;53.574;9.976;2023-05-29T05:20:57;22.10;;;4.10;;
14748;SDS011;7466;53.574;9.976;2023-05-29T05:23:24;21.13;;;3.80;;
14748;SDS011;7466;53.574;9.976;2023-05-29T05:25:51;17.73;;;3.87;;
14748;SDS011;7466;53.574;9.976;2023-05-29T05:28:18;23.83;;;4.03;;
14748;SDS011;7466;53.574;9.976;2023-05-29T05:30:45;11.43;;;3.33;;
14748;SDS011;7466;53.574;9.976;2023-05-29T05:33:12;18.93;;;4.10;;
14748;SDS011;7466;53.574;9.976;2023-05-29T05:35:40;20.33;;;3.80;;
14748;SDS011;7466;53.574;9.976;2023-05-29T05:38:07;15.93;;;3.93;;
14748;SDS011;7466;53.574;9.976;2023-05-29T05:40:35;18.87;;;3.90;;
14748;SDS011;7466;53.574;9.976;2023-05-29T05:43:02;22.80;;;4.27;;
14748;SDS011;7466;53.574;9.976;2023-05-29T05:45:29;20.20;;;4.33;;
14748;SDS011;7466;53.574;9.976;2023-05-29T05:47:56;20.50;;;4.70;;
14748;SDS011;7466;53.574;9.976;2023-05-29T05:50:23;16.77;;;4.07;;
14748;SDS011;7466;53.574;9.976;2023-05-29T05:52:51;19.33;;;4.60;;
14748;SDS011;7466;53.574;9.976;2023-05-29T05:55:18;19.20;;;3.67;;
14748;SDS011;7466;53.574;9.976;2023-05-29T05:57:45;14.00;;;3.40;;
14748;SDS011;7466;53.574;9.976;2023-05-29T06:00:12;12.53;;;3.77;;
14748;SDS011;7466;53.574;9.976;2023-05-29T06:02:40;18.57;;;4.60;;
14748;SDS011;7466;53.574;9.976;2023-05-29T06:05:08;17.13;;;3.83;;
14748;SDS011;7466;53.574;9.976;2023-05-29T06:07:34;16.07;;;3.87;;
14748;SDS011;7466;53.574;9.976;2023-05-29T06:10:12;14.93;;;4.00;;
14748;SDS011;7466;53.574;9.976;2023-05-29T06:12:39;18.43;;;3.73;;
14748;SDS011;7466;53.574;9.976;2023-05-29T06:15:06;20.77;;;4.67;;
14748;SDS011;7466;53.574;9.976;2023-05-29T06:17:34;19.27;;;4.27;;
14748;SDS011;7466;53.574;9.976;2023-05-29T06:20:01;18.07;;;4.00;;
14748;SDS011;7466;53.574;9.976;2023-05-29T06:22:28;17.07;;;4.03;;
14748;SDS011;7466;53.574;9.976;2023-05-29T06:24:55;19.10;;;4.13;;
14748;SDS011;7466;53.574;9.976;2023-05-29T06:27:23;17.33;;;4.03;;
14748;SDS011;7466;53.574;9.976;2023-05-29T06:29:50;20.37;;;4.37;;
14748;SDS011;7466;53.574;9.976;2023-05-29T06:32:17;13.47;;;3.87;;
14748;SDS011;7466;53.574;9.976;2023-05-29T06:34:45;17.47;;;4.47;;
14748;SDS011;7466;53.574;9.976;2023-05-29T06:37:12;16.23;;;3.90;;
14748;SDS011;7466;53.574;9.976;2023-05-29T06:39:38;16.97;;;4.13;;
14748;SDS011;7466;53.574;9.976;2023-05-29T06:42:08;10.70;;;3.37;;
14748;SDS011;7466;53.574;9.976;2023-05-29T06:44:36;14.23;;;4.00;;
14748;SDS011;7466;53.574;9.976;2023-05-29T06:47:05;15.63;;;3.30;;
14748;SDS011;7466;53.574;9.976;2023-05-29T06:49:32;18.27;;;3.93;;
14748;SDS011;7466;53.574;9.976;2023-05-29T06:51:59;14.40;;;3.90;;
14748;SDS011;7466;53.574;9.976;2023-05-29T06:54:25;16.23;;;4.20;;
14748;SDS011;7466;53.574;9.976;2023-05-29T06:56:53;15.67;;;4.30;;
14748;SDS011;7466;53.574;9.976;2023-05-29T06:59:19;14.07;;;3.90;;
14748;SDS011;7466;53.574;9.976;2023-05-29T07:01:51;15.70;;;4.20;;
14748;SDS011;7466;53.574;9.976;2023-05-29T07:04:18;21.67;;;4.60;;
14748;SDS011;7466;53.574;9.976;2023-05-29T07:06:45;21.00;;;4.83;;
14748;SDS011;7466;53.574;9.976;2023-05-29T07:09:11;15.93;;;4.20;;
14748;SDS011;7466;53.574;9.976;2023-05-29T07:11:38;16.97;;;4.27;;
14748;SDS011;7466;53.574;9.976;2023-05-29T07:14:05;15.83;;;4.57;;
14748;SDS011;7466;53.574;9.976;2023-05-29T07:16:32;21.57;;;4.70;;
14748;SDS011;7466;53.574;9.976;2023-05-29T07:19:00;20.70;;;4.20;;
14748;SDS011;7466;53.574;9.976;2023-05-29T07:21:27;15.03;;;3.80;;
14748;SDS011;7466;53.574;9.976;2023-05-29T07:23:54;21.27;;;4.17;;
14748;SDS011;7466;53.574;9.976;2023-05-29T07:26:21;13.13;;;3.87;;
14748;SDS011;7466;53.574;9.976;2023-05-29T07:28:48;15.43;;;3.97;;
14748;SDS011;7466;53.574;9.976;2023-05-29T07:31:15;20.30;;;4.80;;
14748;SDS011;7466;53.574;9.976;2023-05-29T07:33:41;17.13;;;4.03;;
14748;SDS011;7466;53.574;9.976;2023-05-29T07:36:10;12.77;;;4.27;;
14748;SDS011;7466;53.574;9.976;2023-05-29T07:38:37;15.90;;;4.20;;
14748;SDS011;7466;53.574;9.976;2023-05-29T07:41:04;13.83;;;4.10;;
14748;SDS011;7466;53.574;9.976;2023-05-29T07:43:31;11.67;;;3.67;;
14748;SDS011;7466;53.574;9.976;2023-05-29T07:45:58;16.53;;;4.33;;
14748;SDS011;7466;53.574;9.976;2023-05-29T07:48:25;18.70;;;3.80;;
14748;SDS011;7466;53.574;9.976;2023-05-29T07:50:52;17.10;;;4.50;;
14748;SDS011;7466;53.574;9.976;2023-05-29T07:53:20;13.10;;;3.97;;
14748;SDS011;7466;53.574;9.976;2023-05-29T07:55:47;19.97;;;4.40;;
14748;SDS011;7466;53.574;9.976;2023-05-29T07:58:14;18.57;;;4.70;;
14748;SDS011;7466;53.574;9.976;2023-05-29T08:00:41;15.10;;;3.73;;
14748;SDS011;7466;53.574;9.976;2023-05-29T08:03:09;24.43;;;4.93;;
14748;SDS011;7466;53.574;9.976;2023-05-29T08:05:36;18.47;;;4.17;;
14748;SDS011;7466;53.574;9.976;2023-05-29T08:08:03;18.47;;;4.23;;
14748;SDS011;7466;53.574;9.976;2023-05-29T08:10:31;12.50;;;3.87;;
14748;SDS011;7466;53.574;9.976;2023-05-29T08:12:58;13.63;;;3.90;;
14748;SDS011;7466;53.574;9.976;2023-05-29T08:15:25;13.93;;;4.00;;
14748;SDS011;7466;53.574;9.976;2023-05-29T08:17:52;15.13;;;4.43;;
14748;SDS011;7466;53.574;9.976;2023-05-29T08:20:19;13.13;;;3.80;;
14748;SDS011;7466;53.574;9.976;2023-05-29T08:22:45;12.43;;;3.77;;
14748;SDS011;7466;53.574;9.976;2023-05-29T08:25:12;13.43;;;4.33;;
14748;SDS011;7466;53.574;9.976;2023-05-29T08:27:40;23.13;;;4.43;;
14748;SDS011;7466;53.574;9.976;2023-05-29T08:30:07;10.90;;;3.83;;
14748;SDS011;7466;53.574;9.976;2023-05-29T08:32:35;16.10;;;3.60;;
14748;SDS011;7466;53.574;9.976;2023-05-29T08:35:02;16.80;;;4.23;;
14748;SDS011;7466;53.574;9.976;2023-05-29T08:37:30;15.23;;;4.27;;
14748;SDS011;7466;53.574;9.976;2023-05-29T08:39:56;12.13;;;3.57;;
14748;SDS011;7466;53.574;9.976;2023-05-29T08:42:25;17.43;;;3.90;;
14748;SDS011;7466;53.574;9.976;2023-05-29T08:45:00;12.87;;;4.07;;
14748;SDS011;7466;53.574;9.976;2023-05-29T08:47:31;13.17;;;3.97;;
14748;SDS011;7466;53.574;9.976;2023-05-29T08:50:00;11.37;;;3.33;;
14748;SDS011;7466;53.574;9.976;2023-05-29T08:52:27;11.40;;;3.73;;
14748;SDS011;7466;53.574;9.976;2023-05-29T08:55:00;9.43;;;3.77;;
14748;SDS011;7466;53.574;9.976;2023-05-29T08:57:27;13.03;;;3.53;;
14748;SDS011;7466;53.574;9.976;2023-05-29T08:59:56;11.60;;;3.90;;
14748;SDS011;7466;53.574;9.976;2023-05-29T09:02:27;15.73;;;3.67;;
14748;SDS011;7466;53.574;9.976;2023-05-29T09:04:54;17.03;;;4.47;;
14748;SDS011;7466;53.574;9.976;2023-05-29T09:07:23;12.23;;;4.00;;
14748;SDS011;7466;53.574;9.976;2023-05-29T09:10:04;14.90;;;3.90;;
14748;SDS011;7466;53.574;9.976;2023-05-29T09:12:32;14.17;;;3.73;;
14748;SDS011;7466;53.574;9.976;2023-05-29T09:14:59;16.00;;;4.10;;
14748;SDS011;7466;53.574;9.976;2023-05-29T09:17:31;10.47;;;3.70;;
14748;SDS011;7466;53.574;9.976;2023-05-29T09:19:59;14.53;;;4.27;;
14748;SDS011;7466;53.574;9.976;2023-05-29T09:22:29;11.63;;;3.93;;
14748;SDS011;7466;53.574;9.976;2023-05-29T09:24:57;14.77;;;3.93;;
14748;SDS011;7466;53.574;9.976;2023-05-29T09:27:24;10.67;;;3.70;;
14748;SDS011;7466;53.574;9.976;2023-05-29T09:33:03;10.20;;;3.30;;
14748;SDS011;7466;53.574;9.976;2023-05-29T09:35:33;17.37;;;3.70;;
14748;SDS011;7466;53.574;9.976;2023-05-29T09:38:01;12.00;;;3.67;;
14748;SDS011;7466;53.574;9.976;2023-05-29T09:40:31;14.47;;;3.80;;
14748;SDS011;7466;53.574;9.976;2023-05-29T09:43:03;12.53;;;3.40;;
14748;SDS011;7466;53.574;9.976;2023-05-29T09:45:33;13.40;;;3.70;;
14748;SDS011;7466;53.574;9.976;2023-05-29T09:48:04;13.87;;;3.70;;
14748;SDS011;7466;53.574;9.976;2023-05-29T09:50:32;10.53;;;4.10;;
14748;SDS011;7466;53.574;9.976;2023-05-29T09:53:00;13.77;;;3.93;;
14748;SDS011;7466;53.574;9.976;2023-05-29T09:55:28;8.77;;;3.57;;
14748;SDS011;7466;53.574;9.976;2023-05-29T09:57:57;12.33;;;3.80;;
14748;SDS011;7466;53.574;9.976;2023-05-29T10:00:27;11.77;;;3.90;;
14748;SDS011;7466;53.574;9.976;2023-05-29T10:02:56;11.43;;;4.17;;
14748;SDS011;7466;53.574;9.976;2023-05-29T10:05:25;12.73;;;4.23;;
14748;SDS011;7466;53.574;9.976;2023-05-29T10:07:58;13.40;;;3.77;;
14748;SDS011;7466;53.574;9.976;2023-05-29T10:10:27;11.13;;;3.80;;
14748;SDS011;7466;53.574;9.976;2023-05-29T10:12:55;10.67;;;4.00;;
14748;SDS011;7466;53.574;9.976;2023-05-29T10:15:23;12.37;;;4.13;;
14748;SDS011;7466;53.574;9.976;2023-05-29T10:17:57;13.27;;;3.90;;
14748;SDS011;7466;53.574;9.976;2023-05-29T10:20:28;12.60;;;3.57;;
14748;SDS011;7466;53.574;9.976;2023-05-29T10:22:55;10.43;;;4.10;;
14748;SDS011;7466;53.574;9.976;2023-05-29T10:25:26;14.03;;;4.30;;
14748;SDS011;7466;53.574;9.976;2023-05-29T10:27:55;9.00;;;3.73;;
14748;SDS011;7466;53.574;9.976;2023-05-29T10:30:25;10.63;;;3.77;;
14748;SDS011;7466;53.574;9.976;2023-05-29T10:33:07;10.90;;;3.87;;
14748;SDS011;7466;53.574;9.976;2023-05-29T10:35:46;9.90;;;3.47;;
14748;SDS011;7466;53.574;9.976;2023-05-29T10:38:17;10.17;;;3.60;;
14748;SDS011;7466;53.574;9.976;2023-05-29T10:40:46;9.60;;;3.50;;
14748;SDS011;7466;53.574;9.976;2023-05-29T10:45:58;10.87;;;3.80;;
14748;SDS011;7466;53.574;9.976;2023-05-29T10:48:41;7.10;;;3.53;;
14748;SDS011;7466;53.574;9.976;2023-05-29T10:54:06;11.97;;;3.90;;
14748;SDS011;7466;53.574;9.976;2023-05-29T10:56:33;7.80;;;3.53;;
14748;SDS011;7466;53.574;9.976;2023-05-29T10:59:00;10.13;;;4.07;;
14748;SDS011;7466;53.574;9.976;2023-05-29T11:01:33;8.97;;;3.53;;
14748;SDS011;7466;53.574;9.976;2023-05-29T11:06:53;7.07;;;3.80;;
14748;SDS011;7466;53.574;9.976;2023-05-29T11:09:30;9.90;;;3.43;;
14748;SDS011;7466;53.574;9.976;2023-05-29T11:14:54;10.50;;;3.47;;
14748;SDS011;7466;53.574;9.976;2023-05-29T11:17:32;7.57;;;3.47;;
14748;SDS011;7466;53.574;9.976;2023-05-29T11:20:16;9.57;;;3.50;;
14748;SDS011;7466;53.574;9.976;2023-05-29T11:23:03;6.57;;;3.27;;
14748;SDS011;7466;53.574;9.976;2023-05-29T11:25:34;8.07;;;3.67;;
14748;SDS011;7466;53.574;9.976;2023-05-29T11:28:02;11.93;;;3.50;;
14748;SDS011;7466;53.574;9.976;2023-05-29T11:30:42;6.93;;;3.33;;
14748;SDS011;7466;53.574;9.976;2023-05-29T11:33:12;8.30;;;3.50;;
14748;SDS011;7466;53.574;9.976;2023-05-29T11:35:53;10.47;;;4.13;;
14748;SDS011;7466;53.574;9.976;2023-05-29T11:38:24;8.87;;;3.53;;
14748;SDS011;7466;53.574;9.976;2023-05-29T11:40:51;10.63;;;3.50;;
14748;SDS011;7466;53.574;9.976;2023-05-29T11:43:20;6.03;;;3.27;;
14748;SDS011;7466;53.574;9.976;2023-05-29T11:45:47;10.17;;;3.60;;
14748;SDS011;7466;53.574;9.976;2023-05-29T11:48:14;9.53;;;3.73;;
14748;SDS011;7466;53.574;9.976;2023-05-29T11:50:41;8.57;;;3.40;;
14748;SDS011;7466;53.574;9.976;2023-05-29T11:53:08;9.10;;;3.73;;
14748;SDS011;7466;53.574;9.976;2023-05-29T11:55:39;9.33;;;2.90;;
14748;SDS011;7466;53.574;9.976;2023-05-29T11:58:06;11.17;;;3.83;;
14748;SDS011;7466;53.574;9.976;2023-05-29T12:00:34;6.37;;;3.23;;
14748;SDS011;7466;53.574;9.976;2023-05-29T12:03:02;10.33;;;4.00;;
14748;SDS011;7466;53.574;9.976;2023-05-29T12:05:29;8.67;;;3.40;;
14748;SDS011;7466;53.574;9.976;2023-05-29T12:07:57;7.77;;;3.20;;
14748;SDS011;7466;53.574;9.976;2023-05-29T12:10:26;8.63;;;3.73;;
14748;SDS011;7466;53.574;9.976;2023-05-29T12:12:55;8.97;;;3.33;;
14748;SDS011;7466;53.574;9.976;2023-05-29T12:15:25;8.03;;;3.33;;
14748;SDS011;7466;53.574;9.976;2023-05-29T12:17:52;8.90;;;3.47;;
14748;SDS011;7466;53.574;9.976;2023-05-29T12:20:22;6.77;;;3.40;;
14748;SDS011;7466;53.574;9.976;2023-05-29T12:22:51;6.93;;;3.50;;
14748;SDS011;7466;53.574;9.976;2023-05-29T12:25:19;6.70;;;2.97;;
14748;SDS011;7466;53.574;9.976;2023-05-29T12:27:47;9.53;;;3.07;;
14748;SDS011;7466;53.574;9.976;2023-05-29T12:30:20;9.13;;;3.33;;
14748;SDS011;7466;53.574;9.976;2023-05-29T12:32:49;8.37;;;3.60;;
14748;SDS011;7466;53.574;9.976;2023-05-29T12:35:18;11.87;;;3.60;;
14748;SDS011;7466;53.574;9.976;2023-05-29T12:37:46;6.27;;;2.97;;
14748;SDS011;7466;53.574;9.976;2023-05-29T12:40:14;6.73;;;3.23;;
14748;SDS011;7466;53.574;9.976;2023-05-29T12:42:42;6.53;;;3.35;;
14748;SDS011;7466;53.574;9.976;2023-05-29T12:45:09;6.22;;;3.25;;
14748;SDS011;7466;53.574;9.976;2023-05-29T12:47:38;8.52;;;2.97;;
14748;SDS011;7466;53.574;9.976;2023-05-29T12:50:21;6.10;;;3.03;;
14748;SDS011;7466;53.574;9.976;2023-05-29T12:52:52;7.82;;;3.33;;
14748;SDS011;7466;53.574;9.976;2023-05-29T12:55:27;7.28;;;3.17;;
14748;SDS011;7466;53.574;9.976;2023-05-29T12:58:10;8.40;;;3.30;;
14748;SDS011;7466;53.574;9.976;2023-05-29T13:00:38;6.88;;;3.55;;
14748;SDS011;7466;53.574;9.976;2023-05-29T13:03:07;8.52;;;3.10;;
14748;SDS011;7466;53.574;9.976;2023-05-29T13:05:35;9.30;;;3.00;;
14748;SDS011;7466;53.574;9.976;2023-05-29T13:08:02;9.50;;;3.20;;
14748;SDS011;7466;53.574;9.976;2023-05-29T13:10:30;6.45;;;2.80;;
14748;SDS011;7466;53.574;9.976;2023-05-29T13:12:57;8.20;;;3.05;;
14748;SDS011;7466;53.574;9.976;2023-05-29T13:15:24;5.38;;;2.90;;
14748;SDS011;7466;53.574;9.976;2023-05-29T13:17:51;7.65;;;3.00;;
14748;SDS011;7466;53.574;9.976;2023-05-29T13:20:21;5.18;;;3.08;;
14748;SDS011;7466;53.574;9.976;2023-05-29T13:22:48;5.72;;;3.20;;
14748;SDS011;7466;53.574;9.976;2023-05-29T13:25:16;4.45;;;2.67;;
14748;SDS011;7466;53.574;9.976;2023-05-29T13:27:46;7.30;;;2.92;;
14748;SDS011;7466;53.574;9.976;2023-05-29T13:30:14;6.82;;;2.97;;
14748;SDS011;7466;53.574;9.976;2023-05-29T13:32:42;4.95;;;2.70;;
14748;SDS011;7466;53.574;9.976;2023-05-29T13:35:09;8.55;;;3.72;;
14748;SDS011;7466;53.574;9.976;2023-05-29T13:37:37;7.13;;;2.97;;
14748;SDS011;7466;53.574;9.976;2023-05-29T13:40:05;7.15;;;3.00;;
14748;SDS011;7466;53.574;9.976;2023-05-29T13:42:34;4.72;;;2.83;;
14748;SDS011;7466;53.574;9.976;2023-05-29T13:45:01;4.40;;;3.05;;
14748;SDS011;7466;53.574;9.976;2023-05-29T13:47:29;4.35;;;2.65;;
14748;SDS011;7466;53.574;9.976;2023-05-29T13:49:57;5.30;;;3.17;;
14748;SDS011;7466;53.574;9.976;2023-05-29T13:52:24;6.47;;;2.83;;
14748;SDS011;7466;53.574;9.976;2023-05-29T13:54:53;5.15;;;3.10;;
14748;SDS011;7466;53.574;9.976;2023-05-29T13:57:19;5.35;;;3.03;;
14748;SDS011;7466;53.574;9.976;2023-05-29T13:59:47;4.70;;;2.90;;
14748;SDS011;7466;53.574;9.976;2023-05-29T14:02:13;5.10;;;2.92;;
14748;SDS011;7466;53.574;9.976;2023-05-29T14:04:40;6.72;;;3.13;;
14748;SDS011;7466;53.574;9.976;2023-05-29T14:07:08;5.70;;;2.40;;
14748;SDS011;7466;53.574;9.976;2023-05-29T14:09:35;7.38;;;2.95;;
14748;SDS011;7466;53.574;9.976;2023-05-29T14:12:03;6.55;;;2.90;;
14748;SDS011;7466;53.574;9.976;2023-05-29T14:14:32;5.50;;;2.72;;
14748;SDS011;7466;53.574;9.976;2023-05-29T14:16:59;4.75;;;2.75;;
14748;SDS011;7466;53.574;9.976;2023-05-29T14:19:27;5.20;;;2.80;;
14748;SDS011;7466;53.574;9.976;2023-05-29T14:21:54;6.20;;;3.20;;
14748;SDS011;7466;53.574;9.976;2023-05-29T14:24:21;4.65;;;2.90;;
14748;SDS011;7466;53.574;9.976;2023-05-29T14:26:49;5.88;;;3.13;;
14748;SDS011;7466;53.574;9.976;2023-05-29T14:29:18;4.32;;;2.78;;
14748;SDS011;7466;53.574;9.976;2023-05-29T14:31:44;7.47;;;3.28;;
14748;SDS011;7466;53.574;9.976;2023-05-29T14:34:11;7.70;;;3.40;;
14748;SDS011;7466;53.574;9.976;2023-05-29T14:36:39;4.88;;;2.80;;
14748;SDS011;7466;53.574;9.976;2023-05-29T14:39:09;7.32;;;3.25;;
14748;SDS011;7466;53.574;9.976;2023-05-29T14:41:36;6.00;;;2.80;;
14748;SDS011;7466;53.574;9.976;2023-05-29T14:44:03;5.35;;;2.83;;
14748;SDS011;7466;53.574;9.976;2023-05-29T14:46:32;4.70;;;3.00;;
14748;SDS011;7466;53.574;9.976;2023-05-29T14:49:00;4.60;;;2.85;;
14748;SDS011;7466;53.574;9.976;2023-05-29T14:51:27;5.95;;;3.30;;
14748;SDS011;7466;53.574;9.976;2023-05-29T14:53:54;8.70;;;3.30;;
14748;SDS011;7466;53.574;9.976;2023-05-29T14:56:21;7.70;;;3.13;;
14748;SDS011;7466;53.574;9.976;2023-05-29T14:58:48;8.10;;;3.20;;
14748;SDS011;7466;53.574;9.976;2023-05-29T15:01:15;6.28;;;3.25;;
14748;SDS011;7466;53.574;9.976;2023-05-29T15:03:43;10.43;;;3.58;;
14748;SDS011;7466;53.574;9.976;2023-05-29T15:06:10;8.73;;;3.60;;
14748;SDS011;7466;53.574;9.976;2023-05-29T15:08:38;6.18;;;3.22;;
14748;SDS011;7466;53.574;9.976;2023-05-29T15:11:05;9.65;;;3.55;;
14748;SDS011;7466;53.574;9.976;2023-05-29T15:13:32;7.18;;;3.08;;
14748;SDS011;7466;53.574;9.976;2023-05-29T15:16:00;6.60;;;3.45;;
14748;SDS011;7466;53.574;9.976;2023-05-29T15:18:28;7.57;;;3.30;;
14748;SDS011;7466;53.574;9.976;2023-05-29T15:20:56;6.35;;;3.40;;